Time;durP1;ratioP1;P1;durP2;ratioP2;P2;SDS_P1;SDS_P2;PMS_P1;PMS_P2;Temp;Humidity;BMP_temperature;BMP_pressure;BME280_temperature;BME280_humidity;BME280_pressure;Samples;Min_cycle;Max_cycle;Signal;HPM_P1;HPM_P2
2022/01/24 00:00:18;;;;;;;20.30;11.37;;;;;;;3.97;100.00;102789.34;7408478;19;20452;-58
2022/01/24 00:02:54;;;;;;;17.40;10.30;;;;;;;4.04;100.00;102792.69;7404414;19;20406;-59
2022/01/24 00:05:24;;;;;;;18.33;9.93;;;;;;;3.97;100.00;102781.69;7406452;19;20426;-59
2022/01/24 00:07:54;;;;;;;21.80;11.17;;;;;;;3.99;100.00;102787.88;7406197;19;20427;-59
2022/01/24 00:10:26;;;;;;;17.57;10.87;;;;;;;3.99;100.00;102787.88;7407765;19;20468;-59
2022/01/24 00:15:53;;;;;;;19.67;10.30;;;;;;;3.91;100.00;102780.31;7404281;19;20432;-58
2022/01/24 00:26:40;;;;;;;17.60;10.13;;;;;;;3.91;100.00;102779.41;7392290;19;20441;-58
2022/01/24 00:26:50;;;;;;;17.37;10.20;;;;;;;3.88;100.00;102779.09;7401226;19;20431;-58
2022/01/24 00:29:22;;;;;;;18.60;9.80;;;;;;;3.92;100.00;102782.16;7405551;19;20537;-57
2022/01/24 00:31:51;;;;;;;17.20;9.83;;;;;;;3.97;100.00;102780.03;7407374;19;20403;-59
2022/01/24 00:34:24;;;;;;;17.47;9.60;;;;;;;3.99;100.00;102775.09;7393577;19;20441;-59
2022/01/24 00:36:55;;;;;;;19.40;10.30;;;;;;;3.97;100.00;102772.38;7400255;19;20434;-58
2022/01/24 00:39:25;;;;;;;13.83;8.57;;;;;;;3.99;100.00;102767.44;7398850;19;20421;-58
2022/01/24 00:42:06;;;;;;;18.10;8.93;;;;;;;3.89;100.00;102766.50;7404270;19;20697;-58
2022/01/24 00:44:51;;;;;;;13.43;8.80;;;;;;;3.88;100.00;102764.69;7403777;19;20443;-59
2022/01/24 00:47:26;;;;;;;16.87;7.97;;;;;;;3.87;100.00;102768.00;7403611;19;20442;-56
2022/01/24 00:55:25;;;;;;;14.07;8.23;;;;;;;3.92;100.00;102761.72;7405558;19;20477;-58
2022/01/24 00:57:55;;;;;;;16.90;7.87;;;;;;;3.89;100.00;102757.91;7383187;19;20397;-57
2022/01/24 01:00:26;;;;;;;13.63;7.90;;;;;;;3.86;100.00;102761.09;7405522;19;20408;-58
2022/01/24 01:02:55;;;;;;;14.63;8.43;;;;;;;3.86;100.00;102771.31;7379903;19;20412;-57
2022/01/24 01:05:40;;;;;;;13.20;7.93;;;;;;;3.84;100.00;102765.13;7403833;19;20475;-58
2022/01/24 01:18:07;;;;;;;10.80;7.40;;;;;;;3.81;100.00;102767.38;7404523;19;20451;-59
2022/01/24 01:19:12;;;;;;;12.30;7.77;;;;;;;3.76;100.00;102771.09;7398742;19;20439;-58
2022/01/24 01:21:44;;;;;;;14.30;7.43;;;;;;;3.77;100.00;102765.25;7401988;19;20399;-56
2022/01/24 01:24:14;;;;;;;17.00;7.87;;;;;;;3.72;100.00;102767.34;7394825;19;20417;-56
2022/01/24 01:26:48;;;;;;;15.53;8.13;;;;;;;3.80;100.00;102765.56;7400010;19;20418;-55
2022/01/24 01:29:22;;;;;;;14.00;8.40;;;;;;;3.80;100.00;102769.75;7381285;19;20413;-57
2022/01/24 01:32:01;;;;;;;13.80;8.30;;;;;;;3.80;100.00;102769.75;7401261;19;20380;-59
2022/01/24 01:34:51;;;;;;;17.17;8.17;;;;;;;3.73;100.00;102768.22;7397519;19;20846;-58
2022/01/24 01:37:52;;;;;;;15.80;7.73;;;;;;;3.71;100.00;102769.72;7399282;19;20400;-58
2022/01/24 01:52:16;;;;;;;13.27;8.57;;;;;;;3.77;100.00;102765.25;7396623;19;20483;-55
2022/01/24 01:54:30;;;;;;;15.43;8.73;;;;;;;3.72;100.00;102762.22;7389582;19;20713;-57
2022/01/24 01:56:59;;;;;;;16.03;8.27;;;;;;;3.72;100.00;102771.53;7402770;19;20487;-55
2022/01/24 01:59:29;;;;;;;17.23;8.13;;;;;;;3.69;100.00;102766.13;7399277;19;20445;-58
2022/01/24 02:01:59;;;;;;;13.33;7.73;;;;;;;3.68;100.00;102766.88;7403964;19;20401;-58
2022/01/24 02:04:28;;;;;;;13.37;8.17;;;;;;;3.76;100.00;102769.44;7398977;19;20446;-57
2022/01/24 02:06:58;;;;;;;12.63;7.17;;;;;;;3.84;100.00;102764.22;7402594;19;20437;-58
2022/01/24 02:09:34;;;;;;;28.20;15.43;;;;;;;3.99;100.00;102762.31;7402052;19;20516;-59
2022/01/24 02:12:04;;;;;;;16.83;7.80;;;;;;;3.73;100.00;102766.59;7404460;19;20389;-54
2022/01/24 02:14:38;;;;;;;18.80;10.20;;;;;;;3.81;100.00;102761.34;7401223;19;20448;-55
2022/01/24 02:17:13;;;;;;;13.87;9.10;;;;;;;3.74;100.00;102767.50;7402163;19;20487;-58
2022/01/24 02:20:03;;;;;;;15.27;8.50;;;;;;;3.87;100.00;102769.63;7398829;19;20461;-55
2022/01/24 02:25:29;;;;;;;14.27;7.83;;;;;;;3.75;100.00;102759.09;7401065;19;20407;-53
2022/01/24 02:28:02;;;;;;;13.80;8.30;;;;;;;3.81;100.00;102763.91;7399179;19;20416;-58
2022/01/24 02:30:54;;;;;;;18.10;9.10;;;;;;;3.71;100.00;102757.88;7403362;19;20704;-57
2022/01/24 02:33:24;;;;;;;16.17;8.47;;;;;;;3.82;100.00;102764.06;7396971;19;20457;-56
2022/01/24 02:35:53;;;;;;;13.37;7.57;;;;;;;3.73;100.00;102765.66;7401582;19;20419;-55
2022/01/24 02:38:38;;;;;;;15.03;9.13;;;;;;;3.74;100.00;102767.50;7400105;19;20527;-56
2022/01/24 02:49:17;;;;;;;16.00;9.20;;;;;;;3.70;100.00;102757.72;7400103;19;20440;-56
2022/01/24 02:51:49;;;;;;;16.43;8.30;;;;;;;3.63;100.00;102761.28;7402768;19;20456;-58
2022/01/24 02:54:23;;;;;;;17.23;9.63;;;;;;;3.60;100.00;102761.88;7400486;19;20443;-56
2022/01/24 02:56:53;;;;;;;15.10;8.97;;;;;;;3.63;100.00;102767.31;7400449;19;20789;-58
2022/01/24 02:59:24;;;;;;;16.37;9.27;;;;;;;3.64;100.00;102766.53;7400351;19;20510;-58
2022/01/24 03:01:53;;;;;;;16.37;8.27;;;;;;;3.60;100.00;102759.31;7402337;19;20388;-57
2022/01/24 03:04:23;;;;;;;16.37;9.03;;;;;;;3.65;100.00;102760.69;7399896;19;20445;-58
2022/01/24 03:06:53;;;;;;;14.23;8.50;;;;;;;3.71;100.00;102760.44;7400117;19;20487;-58
2022/01/24 03:09:25;;;;;;;14.90;8.30;;;;;;;3.69;100.00;102758.47;7399557;19;20512;-58
2022/01/24 03:12:05;;;;;;;17.03;9.77;;;;;;;3.69;100.00;102766.13;7402264;19;20406;-58
2022/01/24 03:14:36;;;;;;;17.17;9.73;;;;;;;3.73;100.00;102753.81;7398709;19;20455;-58
2022/01/24 03:17:08;;;;;;;16.00;8.47;;;;;;;3.67;100.00;102747.16;7399745;19;20443;-56
2022/01/24 03:19:37;;;;;;;16.00;8.37;;;;;;;3.68;100.00;102743.91;7399571;19;20454;-59
2022/01/24 03:22:09;;;;;;;18.50;10.00;;;;;;;3.68;100.00;102741.34;7402387;19;20642;-58
2022/01/24 03:24:41;;;;;;;12.93;7.87;;;;;;;3.60;100.00;102738.88;7399069;19;20443;-55
2022/01/24 03:27:10;;;;;;;12.53;7.50;;;;;;;3.49;100.00;102736.91;7400231;19;20410;-57
2022/01/24 03:29:39;;;;;;;12.93;7.43;;;;;;;3.60;100.00;102740.56;7399346;19;20460;-59
2022/01/24 03:32:10;;;;;;;14.73;7.43;;;;;;;3.55;100.00;102736.63;7401954;19;20392;-55
2022/01/24 03:34:40;;;;;;;12.37;7.30;;;;;;;3.58;100.00;102737.84;7399142;19;20434;-58
2022/01/24 03:37:10;;;;;;;11.13;6.80;;;;;;;3.59;100.00;102734.53;7399669;19;20434;-58
2022/01/24 03:39:42;;;;;;;16.40;7.73;;;;;;;3.58;100.00;102749.72;7395698;19;20844;-58
2022/01/24 03:42:11;;;;;;;12.90;7.70;;;;;;;3.52;100.00;102744.88;7398700;19;20394;-58
2022/01/24 03:44:44;;;;;;;13.50;7.20;;;;;;;3.51;100.00;102753.28;7392500;19;20438;-56
2022/01/24 03:47:30;;;;;;;15.63;8.17;;;;;;;3.56;100.00;102758.84;7395733;19;20899;-59
2022/01/24 03:50:00;;;;;;;9.77;6.30;;;;;;;3.45;100.00;102760.31;7397340;19;20931;-58
2022/01/24 03:52:30;;;;;;;13.80;7.03;;;;;;;3.46;100.00;102757.00;7397808;19;20417;-58
2022/01/24 03:55:04;;;;;;;16.70;7.90;;;;;;;3.53;100.00;102753.44;7398244;19;20496;-56
2022/01/24 03:57:33;;;;;;;13.07;7.50;;;;;;;3.53;100.00;102753.44;7401021;19;20678;-60
2022/01/24 04:00:03;;;;;;;16.10;7.60;;;;;;;3.48;100.00;102760.59;7404527;19;20380;-58
2022/01/24 04:02:32;;;;;;;13.03;7.63;;;;;;;3.53;100.00;102749.22;7405015;19;20448;-58
2022/01/24 04:05:02;;;;;;;14.33;7.20;;;;;;;3.59;100.00;102749.84;7403158;19;20431;-59
2022/01/24 04:07:32;;;;;;;14.27;8.00;;;;;;;3.51;100.00;102755.84;7404527;19;20686;-58
2022/01/24 04:10:07;;;;;;;15.47;8.07;;;;;;;3.51;100.00;102755.84;7403950;19;20476;-56
2022/01/24 04:12:39;;;;;;;15.80;8.87;;;;;;;3.50;100.00;102764.25;7403088;19;20444;-56
2022/01/24 04:15:43;;;;;;;13.70;8.20;;;;;;;3.50;100.00;102751.47;7403229;19;20431;-59
2022/01/24 04:18:37;;;;;;;13.27;7.20;;;;;;;3.51;100.00;102755.84;7401609;19;20681;-58
2022/01/24 04:23:53;;;;;;;12.53;6.93;;;;;;;3.34;100.00;102754.09;7402159;19;20424;-59
2022/01/24 04:26:25;;;;;;;14.20;7.80;;;;;;;3.43;100.00;102752.47;7401631;19;20407;-58
2022/01/24 04:28:55;;;;;;;17.10;8.30;;;;;;;3.45;100.00;102750.09;7402220;19;20499;-58
2022/01/24 04:31:25;;;;;;;15.53;7.60;;;;;;;3.36;100.00;102745.88;7403624;19;20399;-58
2022/01/24 04:33:55;;;;;;;14.97;8.43;;;;;;;3.43;100.00;102747.38;7401455;19;20500;-56
2022/01/24 04:36:25;;;;;;;21.33;10.30;;;;;;;3.50;100.00;102749.81;7401463;19;20476;-59
2022/01/24 04:38:55;;;;;;;12.43;6.60;;;;;;;3.42;100.00;102758.34;7401180;19;20424;-57
2022/01/24 04:41:30;;;;;;;15.43;7.63;;;;;;;3.41;100.00;102755.63;7403583;19;20927;-57
2022/01/24 04:44:09;;;;;;;11.77;7.07;;;;;;;3.24;100.00;102750.59;7401356;19;20410;-57
2022/01/24 04:46:58;;;;;;;11.20;6.47;;;;;;;3.24;100.00;102749.69;7404893;19;20758;-58
2022/01/24 04:52:25;;;;;;;16.80;8.10;;;;;;;3.31;100.00;102752.13;7407771;19;20670;-58
2022/01/24 04:54:54;;;;;;;16.00;7.40;;;;;;;3.36;100.00;102748.41;7400371;19;20407;-57
2022/01/24 04:57:28;;;;;;;14.87;8.00;;;;;;;3.27;100.00;102747.44;7402774;19;20396;-57
2022/01/24 04:59:59;;;;;;;9.93;6.03;;;;;;;3.20;100.00;102753.59;7391048;19;20412;-57
2022/01/24 05:02:29;;;;;;;16.10;7.60;;;;;;;3.20;100.00;102748.47;7402943;19;20730;-56
2022/01/24 05:05:00;;;;;;;14.63;7.70;;;;;;;3.16;100.00;102746.34;7400745;19;20423;-57
2022/01/24 05:07:29;;;;;;;17.73;8.57;;;;;;;3.19;100.00;102745.75;7402155;19;20398;-56
2022/01/24 05:10:06;;;;;;;12.60;7.27;;;;;;;3.10;100.00;102745.72;7405062;19;20427;-57
2022/01/24 05:23:32;;;;;;;16.40;8.17;;;;;;;3.10;100.00;102751.72;7402187;19;20493;-57
2022/01/24 05:26:04;;;;;;;23.40;9.80;;;;;;;3.06;100.00;102753.78;7399949;19;20493;-55
2022/01/24 05:28:37;;;;;;;16.33;8.00;;;;;;;3.04;100.00;102756.19;7400310;19;20490;-56
2022/01/24 05:31:07;;;;;;;15.10;8.60;;;;;;;3.07;100.00;102753.03;7402060;19;20445;-56
2022/01/24 05:33:36;;;;;;;20.87;9.70;;;;;;;3.12;100.00;102761.19;7399890;19;20411;-56
2022/01/24 05:36:06;;;;;;;18.00;9.80;;;;;;;3.16;100.00;102763.28;7399879;19;20893;-54
2022/01/24 05:38:37;;;;;;;18.40;10.13;;;;;;;3.23;100.00;102765.75;7381061;19;20474;-54
2022/01/24 05:41:06;;;;;;;19.63;9.00;;;;;;;3.28;100.00;102764.56;7401115;19;20463;-55
2022/01/24 05:43:39;;;;;;;18.43;9.60;;;;;;;3.17;100.00;102763.44;7397210;19;20464;-54
2022/01/24 05:46:08;;;;;;;18.57;9.30;;;;;;;3.12;100.00;102758.63;7399502;19;20793;-54
2022/01/24 05:48:38;;;;;;;18.50;10.20;;;;;;;3.11;100.00;102757.72;7399186;19;20499;-57
2022/01/24 05:51:07;;;;;;;14.37;8.20;;;;;;;3.07;100.00;102759.03;7401280;19;20392;-54
2022/01/24 05:53:37;;;;;;;15.53;8.47;;;;;;;3.15;100.00;102757.28;7399288;19;20483;-53
2022/01/24 05:56:06;;;;;;;17.23;7.70;;;;;;;3.06;100.00;102761.44;7402051;19;20430;-55
2022/01/24 05:58:38;;;;;;;28.60;9.97;;;;;;;3.04;100.00;102770.56;7397765;19;20431;-55
2022/01/24 06:01:08;;;;;;;21.57;9.57;;;;;;;3.04;100.00;102766.41;7400931;19;20396;-55
2022/01/24 06:03:38;;;;;;;17.23;9.40;;;;;;;3.10;100.00;102771.22;7394906;19;20408;-56
2022/01/24 06:06:08;;;;;;;23.30;9.50;;;;;;;3.13;100.00;102773.19;7398910;19;20446;-57
2022/01/24 06:08:37;;;;;;;24.70;10.13;;;;;;;3.12;100.00;102773.94;7397214;19;20436;-55
2022/01/24 06:11:07;;;;;;;19.53;10.23;;;;;;;3.10;100.00;102768.66;7400705;19;20474;-56
2022/01/24 06:13:39;;;;;;;20.37;9.83;;;;;;;3.07;100.00;102776.91;7398066;19;20877;-54
2022/01/24 06:16:08;;;;;;;20.60;10.40;;;;;;;2.99;100.00;102779.38;7398659;19;20467;-54
2022/01/24 06:18:38;;;;;;;18.73;10.13;;;;;;;3.01;100.00;102786.47;7389706;19;20560;-54
2022/01/24 06:21:07;;;;;;;22.93;11.07;;;;;;;3.18;100.00;102777.13;7400268;19;20396;-58
2022/01/24 06:23:37;;;;;;;26.00;10.60;;;;;;;3.10;100.00;102772.13;7398207;19;20416;-55
2022/01/24 06:26:06;;;;;;;15.50;8.50;;;;;;;3.05;100.00;102780.94;7397950;19;20479;-55
2022/01/24 06:28:39;;;;;;;20.90;9.53;;;;;;;3.03;100.00;102784.97;7398317;19;20885;-54
2022/01/24 06:31:08;;;;;;;19.30;9.70;;;;;;;2.98;100.00;102788.69;7399892;19;20928;-56
2022/01/24 06:33:38;;;;;;;19.77;10.03;;;;;;;2.99;100.00;102787.94;7397499;19;20915;-56
2022/01/24 06:36:07;;;;;;;20.17;10.00;;;;;;;3.04;100.00;102789.34;7397932;19;20430;-56
2022/01/24 06:38:37;;;;;;;23.40;10.83;;;;;;;3.00;100.00;102801.59;7396956;19;20515;-55
2022/01/24 06:41:06;;;;;;;20.57;9.97;;;;;;;3.01;100.00;102788.09;7399519;19;20396;-57
2022/01/24 06:43:38;;;;;;;18.40;10.20;;;;;;;3.02;100.00;102788.25;7397416;19;20415;-57
2022/01/24 06:46:08;;;;;;;18.10;10.50;;;;;;;3.03;100.00;102792.63;7401114;19;20427;-55
2022/01/24 06:48:37;;;;;;;18.77;10.53;;;;;;;3.09;100.00;102789.81;7390877;19;20448;-54
2022/01/24 06:51:10;;;;;;;18.13;9.40;;;;;;;2.97;100.00;102789.41;7399343;19;20400;-57
2022/01/24 06:53:40;;;;;;;32.47;10.63;;;;;;;2.94;100.00;102789.09;7397198;19;20478;-57
2022/01/24 06:56:10;;;;;;;22.60;11.43;;;;;;;2.98;100.00;102791.25;7397362;19;20420;-56
2022/01/24 06:58:43;;;;;;;26.13;12.03;;;;;;;3.02;100.00;102784.81;7389984;19;20486;-57
2022/01/24 07:01:12;;;;;;;20.23;10.57;;;;;;;2.93;100.00;102789.84;7399305;19;20388;-57
2022/01/24 07:03:42;;;;;;;18.83;9.50;;;;;;;2.93;100.00;102788.19;7396317;19;20410;-56
2022/01/24 07:06:12;;;;;;;21.60;10.90;;;;;;;2.93;100.00;102790.75;7396921;19;20438;-55
2022/01/24 07:08:42;;;;;;;21.33;10.70;;;;;;;2.94;100.00;102784.00;7397141;19;20560;-57
2022/01/24 07:11:11;;;;;;;16.83;5.20;;;;;;;2.87;100.00;102789.22;7399366;19;20697;-56
2022/01/24 07:13:44;;;;;;;21.73;10.97;;;;;;;2.93;100.00;102788.19;7396104;19;20406;-57
2022/01/24 07:16:13;;;;;;;24.77;12.23;;;;;;;2.97;100.00;102777.59;7396628;19;20901;-56
2022/01/24 07:21:25;;;;;;;33.83;13.97;;;;;;;3.01;100.00;102794.09;7398781;19;20355;-57
2022/01/24 07:23:55;;;;;;;30.40;14.30;;;;;;;3.07;100.00;102786.19;7389889;19;20444;-56
2022/01/24 07:26:24;;;;;;;28.83;14.37;;;;;;;3.10;100.00;102792.53;7396223;19;20491;-56
2022/01/24 07:28:56;;;;;;;25.33;12.17;;;;;;;3.10;100.00;102797.66;7396269;19;20433;-56
2022/01/24 07:31:26;;;;;;;26.40;12.40;;;;;;;3.10;100.00;102797.66;7406254;19;20459;-56
2022/01/24 07:33:55;;;;;;;25.00;13.13;;;;;;;3.10;100.00;102802.75;7402059;19;20427;-56
2022/01/24 07:36:25;;;;;;;29.27;14.57;;;;;;;3.10;100.00;102805.28;7403005;19;20975;-56
2022/01/24 07:38:54;;;;;;;32.50;15.47;;;;;;;3.07;100.00;102809.13;7403172;19;20494;-56
2022/01/24 07:41:27;;;;;;;30.37;15.53;;;;;;;3.13;100.00;102807.22;7405604;19;20456;-57
2022/01/24 07:44:00;;;;;;;29.23;14.97;;;;;;;3.22;100.00;102802.19;7401245;19;20407;-57
2022/01/24 07:46:31;;;;;;;28.93;15.17;;;;;;;3.20;100.00;102807.16;7402480;19;20415;-52
2022/01/24 07:49:03;;;;;;;31.53;13.90;;;;;;;3.18;100.00;102808.63;7404751;19;20498;-57
2022/01/24 07:51:32;;;;;;;29.87;14.30;;;;;;;3.21;100.00;102805.50;7405254;19;20851;-57
2022/01/24 07:54:02;;;;;;;32.77;16.60;;;;;;;3.17;100.00;102799.16;7395419;19;20829;-52
2022/01/24 07:56:31;;;;;;;37.83;15.90;;;;;;;3.24;100.00;102798.19;7402524;19;20458;-54
2022/01/24 07:59:03;;;;;;;35.30;15.13;;;;;;;3.15;100.00;102804.84;7393703;19;20441;-57
2022/01/24 08:01:33;;;;;;;30.60;14.27;;;;;;;3.12;100.00;102799.44;7405081;19;20372;-57
2022/01/24 08:04:03;;;;;;;41.10;17.90;;;;;;;3.13;100.00;102802.13;7395002;19;20423;-54
2022/01/24 08:06:33;;;;;;;41.73;19.70;;;;;;;3.07;100.00;102799.84;7401916;19;20746;-56
2022/01/24 08:09:02;;;;;;;54.80;21.90;;;;;;;3.10;100.00;102812.94;7402532;19;20421;-53
2022/01/24 08:11:32;;;;;;;45.43;20.13;;;;;;;3.21;100.00;102810.59;7404818;19;20388;-54
2022/01/24 08:14:04;;;;;;;41.33;20.60;;;;;;;3.18;100.00;102813.72;7402662;19;20478;-57
2022/01/24 08:16:35;;;;;;;49.00;21.90;;;;;;;3.25;100.00;102817.84;7401734;19;20482;-54
2022/01/24 08:19:04;;;;;;;46.70;20.80;;;;;;;3.27;100.00;102818.91;7402376;19;20416;-56
2022/01/24 08:21:34;;;;;;;45.93;19.43;;;;;;;3.18;100.00;102820.50;7404292;19;20448;-56
2022/01/24 08:24:05;;;;;;;53.90;23.00;;;;;;;3.22;100.00;102822.59;7382859;19;20683;-56
2022/01/24 08:26:35;;;;;;;38.60;17.63;;;;;;;3.17;100.00;102828.91;7401487;19;20411;-57
2022/01/24 08:29:07;;;;;;;46.67;20.03;;;;;;;3.14;100.00;102823.47;7402027;19;20422;-57
2022/01/24 08:31:39;;;;;;;52.70;22.77;;;;;;;3.17;100.00;102826.34;7403939;19;20448;-57
2022/01/24 08:34:08;;;;;;;49.43;20.70;;;;;;;3.18;100.00;102823.94;7402186;19;20416;-53
2022/01/24 08:36:38;;;;;;;55.10;24.60;;;;;;;3.26;100.00;102834.03;7401089;19;20412;-57
2022/01/24 08:39:08;;;;;;;54.07;24.90;;;;;;;3.23;100.00;102839.75;7401697;19;20760;-54
2022/01/24 08:41:57;;;;;;;48.20;23.00;;;;;;;3.29;100.00;102829.28;7401949;19;20392;-55
2022/01/24 08:45:43;;;;;;;52.90;22.80;;;;;;;3.28;100.00;102838.56;7401355;19;20423;-54
2022/01/24 08:47:27;;;;;;;53.33;23.33;;;;;;;3.20;100.00;102844.50;7406342;19;20671;-51
2022/01/24 08:50:12;;;;;;;49.83;22.03;;;;;;;3.23;100.00;102839.75;7400197;19;20490;-56
2022/01/24 08:52:42;;;;;;;53.67;23.03;;;;;;;3.28;100.00;102843.66;7401317;19;20669;-56
2022/01/24 08:55:15;;;;;;;58.43;27.17;;;;;;;3.35;100.00;102830.78;7401885;19;20691;-51
2022/01/24 08:57:44;;;;;;;61.30;26.13;;;;;;;3.33;100.00;102832.28;7401633;19;20384;-57
2022/01/24 09:00:17;;;;;;;49.07;20.93;;;;;;;3.23;100.00;102839.75;7401528;19;20451;-56
2022/01/24 09:02:47;;;;;;;57.23;25.57;;;;;;;3.32;100.00;102835.59;7403482;19;20404;-56
2022/01/24 09:05:22;;;;;;;62.30;27.00;;;;;;;3.33;100.00;102836.50;7402357;19;20424;-56
2022/01/24 09:07:52;;;;;;;51.00;23.70;;;;;;;3.32;100.00;102830.50;7391685;19;20905;-56
2022/01/24 09:10:24;;;;;;;48.97;21.30;;;;;;;3.26;100.00;102834.03;7404406;19;20392;-57
2022/01/24 09:12:53;;;;;;;55.30;24.80;;;;;;;3.31;100.00;102833.78;7394011;19;20735;-56
2022/01/24 09:15:25;;;;;;;55.50;25.50;;;;;;;3.35;100.00;102835.91;7401594;19;20396;-55
2022/01/24 09:17:55;;;;;;;54.63;24.57;;;;;;;3.35;100.00;102830.78;7391697;19;20756;-54
2022/01/24 09:20:25;;;;;;;59.43;26.03;;;;;;;3.35;100.00;102840.13;7401338;19;20451;-56
2022/01/24 09:22:54;;;;;;;65.93;27.50;;;;;;;3.28;100.00;102842.78;7400197;19;20422;-54
2022/01/24 09:25:24;;;;;;;57.87;25.80;;;;;;;3.33;100.00;102841.63;7400836;19;20467;-55
2022/01/24 09:27:54;;;;;;;57.60;25.43;;;;;;;3.36;100.00;102842.84;7400240;19;20868;-52
2022/01/24 09:30:30;;;;;;;60.87;28.93;;;;;;;3.42;100.00;102828.88;7401699;19;20379;-58
2022/01/24 09:32:59;;;;;;;52.43;24.27;;;;;;;3.42;100.00;102828.88;7391076;19;20487;-57
2022/01/24 09:35:29;;;;;;;64.63;27.73;;;;;;;3.35;100.00;102840.13;7400395;19;20399;-56
2022/01/24 09:37:59;;;;;;;59.20;26.27;;;;;;;3.42;100.00;102831.44;7400419;19;20749;-56
2022/01/24 09:40:28;;;;;;;64.80;27.60;;;;;;;3.42;100.00;102827.25;7400815;19;20402;-57
2022/01/24 09:42:58;;;;;;;55.23;23.70;;;;;;;3.36;100.00;102826.59;7399970;19;20467;-56
2022/01/24 09:45:31;;;;;;;57.03;25.23;;;;;;;3.35;100.00;102835.91;7400460;19;20463;-56
2022/01/24 09:48:01;;;;;;;58.60;24.10;;;;;;;3.32;100.00;102832.13;7399350;19;20414;-53
2022/01/24 09:50:30;;;;;;;60.73;25.80;;;;;;;3.39;100.00;102832.06;7401287;19;20404;-58
2022/01/24 09:53:03;;;;;;;71.83;29.07;;;;;;;3.42;100.00;102821.22;7394621;19;20701;-55
2022/01/24 09:55:32;;;;;;;55.90;25.87;;;;;;;3.32;100.00;102827.94;7400037;19;20397;-55
2022/01/24 09:58:02;;;;;;;67.83;29.10;;;;;;;3.37;100.00;102821.66;7399634;19;20897;-54
2022/01/24 10:00:34;;;;;;;67.53;30.47;;;;;;;3.46;100.00;102824.28;7400185;19;20364;-54
2022/01/24 10:03:04;;;;;;;63.57;28.57;;;;;;;3.51;100.00;102833.31;7392971;19;20462;-57
2022/01/24 10:05:55;;;;;;;69.90;28.73;;;;;;;3.47;100.00;102828.63;7399608;19;20408;-55
2022/01/24 10:08:31;;;;;;;62.37;25.53;;;;;;;3.55;100.00;102832.00;7399373;19;20405;-57
2022/01/24 10:11:03;;;;;;;63.97;28.57;;;;;;;3.80;100.00;102821.75;7400194;19;20455;-56
2022/01/24 10:16:35;;;;;;;74.57;31.50;;;;;;;3.79;100.00;102825.03;7396780;19;20420;-57
2022/01/24 10:19:13;;;;;;;82.57;35.70;;;;;;;3.80;100.00;102821.75;7398208;19;20471;-57
2022/01/24 10:22:03;;;;;;;75.33;32.27;;;;;;;3.91;100.00;102823.72;7398668;19;20659;-57
2022/01/24 10:24:40;;;;;;;57.60;26.30;;;;;;;3.94;100.00;102829.91;7397735;19;20416;-56
2022/01/24 10:27:15;;;;;;;70.30;29.87;;;;;;;3.92;100.00;102838.34;7401273;19;20910;-58
2022/01/24 10:29:48;;;;;;;66.53;30.33;;;;;;;4.00;100.00;102835.66;7388939;19;20420;-57
2022/01/24 10:32:38;;;;;;;61.73;28.90;;;;;;;4.07;100.00;102830.41;7403339;19;20464;-52
2022/01/24 10:35:24;;;;;;;62.13;26.60;;;;;;;3.94;100.00;102832.47;7402224;19;20450;-57
2022/01/24 10:37:55;;;;;;;69.23;31.67;;;;;;;4.18;100.00;102827.31;7393360;19;20806;-54
2022/01/24 10:40:50;;;;;;;68.27;31.47;;;;;;;4.22;100.00;102822.47;7403004;19;20908;-52
2022/01/24 10:43:25;;;;;;;75.40;31.20;;;;;;;4.17;100.00;102827.13;7396459;19;20432;-57
2022/01/24 10:45:57;;;;;;;64.40;26.40;;;;;;;3.74;100.00;102826.22;7396508;19;20480;-54
2022/01/24 10:48:31;;;;;;;66.27;29.87;;;;;;;3.73;100.00;102824.41;7399025;19;20451;-57
2022/01/24 10:51:10;;;;;;;73.90;28.90;;;;;;;3.79;100.00;102817.38;7400918;19;20412;-56
2022/01/24 10:53:45;;;;;;;95.57;33.07;;;;;;;3.79;100.00;102814.81;7395041;19;20807;-54
2022/01/24 10:56:29;;;;;;;83.97;30.13;;;;;;;3.72;100.00;102812.38;7401328;19;20432;-56
2022/01/24 10:59:04;;;;;;;68.70;27.27;;;;;;;3.60;100.00;102818.03;7397192;19;20423;-56
2022/01/24 11:01:36;;;;;;;71.23;29.63;;;;;;;3.62;100.00;102815.63;7398070;19;20393;-56
2022/01/24 11:04:13;;;;;;;70.63;27.00;;;;;;;3.67;100.00;102811.91;7397684;19;20727;-56
2022/01/24 11:06:45;;;;;;;65.70;25.10;;;;;;;3.60;100.00;102820.56;7395999;19;20443;-57
2022/01/24 11:09:19;;;;;;;72.93;28.23;;;;;;;3.64;100.00;102809.94;7396331;19;20430;-55
2022/01/24 11:11:48;;;;;;;71.93;28.27;;;;;;;3.65;100.00;102811.75;7398676;19;20687;-57
2022/01/24 11:14:20;;;;;;;70.30;28.37;;;;;;;3.73;100.00;102809.06;7397575;19;20411;-57
2022/01/24 11:16:53;;;;;;;78.47;31.73;;;;;;;3.65;100.00;102811.75;7398417;19;21475;-56
2022/01/24 11:19:30;;;;;;;70.60;29.20;;;;;;;3.67;100.00;102793.13;7397311;19;20783;-56
2022/01/24 11:22:04;;;;;;;73.20;29.77;;;;;;;3.72;100.00;102789.41;7401072;19;20481;-55
2022/01/24 11:24:41;;;;;;;75.20;31.77;;;;;;;3.74;100.00;102790.47;7395031;19;20740;-57
2022/01/24 11:27:31;;;;;;;81.77;30.50;;;;;;;3.85;100.00;102779.69;7398715;19;20393;-58
2022/01/24 11:30:03;;;;;;;75.07;29.83;;;;;;;3.72;100.00;102791.97;7398292;19;20431;-57
2022/01/24 11:32:38;;;;;;;61.43;25.20;;;;;;;3.73;100.00;102793.75;7402648;19;20393;-58
2022/01/24 11:35:10;;;;;;;77.67;32.03;;;;;;;3.86;100.00;102786.63;7386269;19;20872;-58
2022/01/24 11:37:42;;;;;;;75.57;31.07;;;;;;;3.89;100.00;102786.91;7390587;19;20968;-57
2022/01/24 11:40:13;;;;;;;72.30;30.60;;;;;;;3.81;100.00;102787.81;7398365;19;20465;-57
2022/01/24 11:42:46;;;;;;;75.83;31.03;;;;;;;3.73;100.00;102788.66;7395956;19;20660;-56
2022/01/24 11:45:44;;;;;;;70.93;31.10;;;;;;;3.76;100.00;102782.19;7396685;19;20843;-57
2022/01/24 11:48:22;;;;;;;61.33;24.37;;;;;;;3.63;100.00;102790.28;7395385;19;20447;-58
2022/01/24 11:51:05;;;;;;;67.40;29.77;;;;;;;3.57;100.00;102784.53;7397021;19;20481;-57
2022/01/24 11:53:36;;;;;;;70.87;30.07;;;;;;;3.63;100.00;102790.28;7391180;19;20399;-58
2022/01/24 11:56:22;;;;;;;72.33;31.47;;;;;;;3.77;100.00;102786.59;7399115;19;20495;-57
2022/01/24 11:58:55;;;;;;;74.60;28.47;;;;;;;3.72;100.00;102787.75;7384280;19;20426;-58
2022/01/24 12:01:42;;;;;;;70.67;30.17;;;;;;;3.67;100.00;102780.38;7396392;19;20396;-56
2022/01/24 12:04:12;;;;;;;76.20;30.30;;;;;;;3.66;100.00;102782.03;7361275;19;20392;-57
2022/01/24 12:07:12;;;;;;;71.03;29.93;;;;;;;3.65;100.00;102790.44;7394716;19;20447;-58
2022/01/24 12:09:44;;;;;;;102.73;36.27;;;;;;;3.75;100.00;102787.19;7395172;19;20443;-55
2022/01/24 12:12:47;;;;;;;77.53;31.90;;;;;;;3.69;100.00;102786.56;7396326;19;20409;-56
2022/01/24 12:15:52;;;;;;;72.60;27.30;;;;;;;3.58;100.00;102773.56;7392389;19;20889;-56
2022/01/24 12:18:24;;;;;;;75.43;32.27;;;;;;;3.67;100.00;102770.16;7381735;19;20432;-56
2022/01/24 12:20:55;;;;;;;73.70;29.47;;;;;;;3.54;100.00;102765.47;7403270;19;20386;-58
2022/01/24 12:23:39;;;;;;;68.97;29.83;;;;;;;3.62;100.00;102760.41;7392418;19;20480;-56
2022/01/24 12:26:36;;;;;;;73.77;29.03;;;;;;;3.55;100.00;102763.06;7401030;19;20403;-56
2022/01/24 12:29:08;;;;;;;68.23;27.40;;;;;;;3.59;100.00;102754.97;7400941;19;20496;-57
2022/01/24 12:31:50;;;;;;;48.93;20.17;;;;;;;3.42;100.00;102758.34;7403630;19;20462;-56
2022/01/24 12:34:31;;;;;;;70.97;28.73;;;;;;;3.53;100.00;102758.56;7396285;19;20528;-57
2022/01/24 12:37:09;;;;;;;60.97;25.43;;;;;;;3.51;100.00;102756.75;7400214;19;20435;-57
2022/01/24 12:39:45;;;;;;;60.67;26.93;;;;;;;3.61;100.00;102761.16;7399939;19;20427;-57
2022/01/24 12:42:30;;;;;;;68.77;29.80;;;;;;;3.60;100.00;102764.41;7402504;19;20644;-58
2022/01/24 12:47:42;;;;;;;74.17;31.60;;;;;;;3.58;100.00;102760.81;7403593;19;20413;-56
2022/01/24 12:50:12;;;;;;;56.00;25.43;;;;;;;3.65;100.00;102760.69;7404926;19;20733;-57